Medway, Maine
Current Conditions -  °F | °C
As of 7:53 AM on Monday 20 Oct 2014 (Local Time) from KMLT Reporting Station
Overcast Overcast  
Wind Chill: 31°   Ceiling: 3000
Heat Index: 39°   Visibility: 10mi
Dew Point: 27°   Wind: 15mph
Humidity: 62%   Direction: 290°WNW
Pressure: 29.87"   Gusts: 30mph
Location:  45.61°N, 68.53°W
Report Text: KMLT 201153Z AUTO 29013G26KT 10SM OVC030 04/M03 A2987 RMK AO2 PK WND 29026/1149 SLP122 T00391028 10044 20028 53014
Loading
Personal Weather Stations






























Interactive Weather Map
Tropical Storm Tracking
New forecast layout! Learn more

10-Day Weather Forecast

Advertisements
Track Severe Weather on mobile